Forside
METAR-TAF:

METAR-TAF

Lufthavne :

Flughafen Kiel

Kiel, Tyskland

Breddekreds: 54-23N, længdekreds: 010-10E, højde: 31 m

Aktuelle vejr

Denne rapport blev lavet for 11 minutter siden, kl. 13:50 UTC
Temperatur 10°C
Fugtighed 50%
Tryk 1024 hPa
Sigt 10 km eller mere
ingen skyer under 1500m og ingen cumulonimbus

METAR: EDHK 171350Z /////KT ///V/// CAVOK 10/M00 Q1024

Tid: 16:01 (14:01 UTC)

Vejrudsigter

Denne rapport blev lavet for 3 timer og 1 minutter siden, kl. 11:00 UTC
Foreløbig gælder fra 17 på 12 UTC til 17 på 19 UTC
Vind 9 kt fra nordøst
Sigt 10 km eller mere
ingen skyer under 1500m og ingen cumulonimbus

TAF: EDHK 171100Z 1712/1719 04009KT CAVOK

Vejrobservationer og prognoser fra mere end 4000 lufthavne (METAR og TAF).

De gule og røde prikker repræsenterer de meteorologiske stationer.

Flyt musen over at se navnet på stationen.

Så klik over at se vejr observationer og prognoser.

At skifte det kort: Klik på de grønne knapper med et sort kors for at zoome ind; på den grønne knap med en bindestreg for at zoome ud; eller på de grønne pile for tilstødende kort.


METAR-TAF: